createdAt,value
2019-05-23T00:00:50.999Z,11.63
2019-05-23T00:03:42.327Z,11.58
2019-05-23T00:06:31.038Z,11.51
2019-05-23T00:09:18.721Z,11.45
2019-05-23T00:11:50.004Z,11.38
2019-05-23T00:14:43.758Z,11.32
2019-05-23T00:17:16.288Z,11.28
2019-05-23T00:19:46.103Z,11.24
2019-05-23T00:22:16.807Z,11.19
2019-05-23T00:24:47.863Z,11.16
2019-05-23T00:27:17.743Z,11.11
2019-05-23T00:29:49.028Z,11.07
2019-05-23T00:32:36.440Z,11.01
2019-05-23T00:35:09.090Z,10.98
2019-05-23T00:37:40.967Z,10.93
2019-05-23T00:40:10.795Z,10.88
2019-05-23T00:42:40.900Z,10.86
2019-05-23T00:45:12.355Z,10.82
2019-05-23T00:47:42.045Z,10.79
2019-05-23T00:50:14.001Z,10.75
2019-05-23T00:52:43.411Z,10.72
2019-05-23T00:55:15.358Z,10.67
2019-05-23T00:57:45.140Z,10.60
2019-05-23T01:00:18.496Z,10.55
2019-05-23T01:02:47.835Z,10.53
2019-05-23T01:05:17.179Z,10.49
2019-05-23T01:07:46.510Z,10.44
2019-05-23T01:10:18.485Z,10.40
2019-05-23T01:12:47.983Z,10.37
2019-05-23T01:15:18.630Z,10.34
2019-05-23T01:17:49.941Z,10.31
2019-05-23T01:20:21.065Z,10.27
2019-05-23T01:22:51.118Z,10.23
2019-05-23T01:25:21.495Z,10.21
2019-05-23T01:27:51.059Z,10.17
2019-05-23T01:30:22.059Z,10.15
2019-05-23T01:32:59.237Z,10.11
2019-05-23T01:35:29.391Z,10.08
2019-05-23T01:38:04.038Z,10.03
2019-05-23T01:40:31.659Z,10.01
2019-05-23T01:43:02.229Z,9.99
2019-05-23T01:45:33.776Z,9.97
2019-05-23T01:48:04.059Z,9.94
2019-05-23T01:50:33.390Z,9.90
2019-05-23T01:53:02.874Z,9.87
2019-05-23T01:55:32.350Z,9.81
2019-05-23T01:58:01.947Z,9.78
2019-05-23T02:00:31.567Z,9.75
2019-05-23T02:03:01.605Z,9.72
2019-05-23T02:05:31.185Z,9.70
2019-05-23T02:08:00.790Z,9.67
2019-05-23T02:10:30.367Z,9.65
2019-05-23T02:13:00.808Z,9.61
2019-05-23T02:15:30.154Z,9.58
2019-05-23T02:17:59.481Z,9.55
2019-05-23T02:20:29.167Z,9.52
2019-05-23T02:22:58.641Z,9.49
2019-05-23T02:25:29.028Z,9.47
2019-05-23T02:27:58.423Z,9.45
2019-05-23T02:30:34.627Z,9.43
2019-05-23T02:32:59.120Z,9.40
2019-05-23T02:35:28.447Z,9.36
2019-05-23T02:38:00.109Z,9.35
2019-05-23T02:40:46.136Z,9.32
2019-05-23T02:43:18.184Z,9.32
2019-05-23T02:45:53.546Z,9.29
2019-05-23T02:48:25.486Z,9.28
2019-05-23T02:51:14.449Z,9.27
2019-05-23T02:53:45.105Z,9.22
2019-05-23T02:56:18.337Z,9.22
2019-05-23T02:58:55.527Z,9.19
2019-05-23T03:01:32.472Z,9.18
2019-05-23T03:04:05.080Z,9.17
2019-05-23T03:06:37.075Z,9.15
2019-05-23T03:09:08.908Z,9.14
2019-05-23T03:11:41.980Z,9.11
2019-05-23T03:14:13.339Z,9.08
2019-05-23T03:16:44.630Z,9.05
2019-05-23T03:19:23.931Z,9.04
2019-05-23T03:21:55.269Z,9.01
2019-05-23T03:24:25.050Z,8.99
2019-05-23T03:27:03.862Z,8.98
2019-05-23T03:29:34.277Z,8.96
2019-05-23T03:32:06.077Z,8.95
2019-05-23T03:34:37.364Z,8.93
2019-05-23T03:37:06.881Z,8.92
2019-05-23T03:39:36.266Z,8.91
2019-05-23T03:42:07.228Z,8.90
2019-05-23T03:44:36.569Z,8.89
2019-05-23T03:47:07.622Z,8.86
2019-05-23T03:49:37.221Z,8.84
2019-05-23T03:52:09.166Z,8.82
2019-05-23T03:54:39.835Z,8.80
2019-05-23T03:57:10.805Z,8.79
2019-05-23T03:59:40.408Z,8.79
2019-05-23T04:02:11.381Z,8.79
2019-05-23T04:04:41.756Z,8.79
2019-05-23T04:07:12.896Z,8.79
2019-05-23T04:09:43.436Z,8.78
2019-05-23T04:12:13.784Z,8.80
2019-05-23T04:14:43.195Z,8.79
2019-05-23T04:17:12.528Z,8.80
2019-05-23T04:19:41.930Z,8.81
2019-05-23T04:22:11.264Z,8.84
2019-05-23T04:24:40.665Z,8.85
2019-05-23T04:27:10.749Z,8.88
2019-05-23T04:29:40.068Z,8.91
2019-05-23T04:32:09.596Z,8.95
2019-05-23T04:34:40.156Z,8.97
2019-05-23T04:37:10.578Z,9.00
2019-05-23T04:39:39.990Z,9.01
2019-05-23T04:42:10.541Z,9.04
2019-05-23T04:44:43.997Z,9.08
2019-05-23T04:47:11.046Z,9.11
2019-05-23T04:49:40.523Z,9.17
2019-05-23T04:52:10.122Z,9.22
2019-05-23T04:54:39.616Z,9.26
2019-05-23T04:57:10.145Z,9.30
2019-05-23T04:59:39.669Z,9.34
2019-05-23T05:02:24.825Z,9.40
2019-05-23T05:04:44.138Z,9.49
2019-05-23T05:07:14.917Z,9.56
2019-05-23T05:09:44.251Z,9.67
2019-05-23T05:12:13.954Z,9.73
2019-05-23T05:14:44.029Z,9.78
2019-05-23T05:17:13.631Z,9.85
2019-05-23T05:19:42.963Z,9.92
2019-05-23T05:22:12.471Z,10.00
2019-05-23T05:24:41.834Z,10.05
2019-05-23T05:27:11.624Z,10.11
2019-05-23T05:29:40.980Z,10.20
2019-05-23T05:32:11.488Z,10.26
2019-05-23T05:34:40.890Z,10.32
2019-05-23T05:37:10.230Z,10.40
2019-05-23T05:39:39.657Z,10.48
2019-05-23T05:42:09.172Z,10.54
2019-05-23T05:44:39.662Z,10.67
2019-05-23T05:47:10.223Z,10.71
2019-05-23T05:49:42.203Z,10.83
2019-05-23T05:52:11.655Z,10.92
2019-05-23T05:54:41.018Z,10.99
2019-05-23T05:57:10.975Z,11.11
2019-05-23T05:59:42.026Z,11.18
2019-05-23T06:02:13.007Z,11.26
2019-05-23T06:04:42.634Z,11.35
2019-05-23T06:07:31.964Z,11.44
2019-05-23T06:10:02.675Z,11.50
2019-05-23T06:12:32.189Z,11.61
2019-05-23T06:15:02.425Z,11.67
2019-05-23T06:17:32.756Z,11.84
2019-05-23T06:20:02.212Z,11.87
2019-05-23T06:22:33.515Z,11.91
2019-05-23T06:25:04.153Z,11.95
2019-05-23T06:27:35.544Z,12.08
2019-05-23T06:30:08.281Z,12.15
2019-05-23T06:32:37.955Z,12.24
2019-05-23T06:35:08.213Z,12.27
2019-05-23T06:37:37.625Z,12.32
2019-05-23T06:40:08.289Z,12.37
2019-05-23T06:42:37.695Z,12.46
2019-05-23T06:45:11.312Z,12.51
2019-05-23T06:47:40.335Z,12.55
2019-05-23T06:50:12.970Z,12.63
2019-05-23T06:52:42.570Z,12.72
2019-05-23T06:55:12.255Z,12.82
2019-05-23T06:57:41.682Z,12.88
2019-05-23T07:00:13.014Z,12.97
2019-05-23T07:02:43.411Z,13.03
2019-05-23T07:05:13.110Z,13.15
2019-05-23T07:07:42.715Z,13.21
2019-05-23T07:10:13.290Z,13.32
2019-05-23T07:12:42.975Z,13.36
2019-05-23T07:15:12.743Z,13.42
2019-05-23T07:17:42.480Z,13.50
2019-05-23T07:20:12.724Z,13.62
2019-05-23T07:22:42.072Z,13.64
2019-05-23T07:25:11.943Z,13.71
2019-05-23T07:27:41.453Z,13.77
2019-05-23T07:30:13.859Z,13.92
2019-05-23T07:32:43.168Z,13.96
2019-05-23T07:35:12.511Z,14.03
2019-05-23T07:37:42.429Z,14.13
2019-05-23T07:40:11.860Z,14.26
2019-05-23T07:42:42.274Z,14.30
2019-05-23T07:45:14.287Z,14.36
2019-05-23T07:47:43.800Z,14.45
2019-05-23T07:50:13.479Z,14.57
2019-05-23T07:52:42.911Z,14.74
2019-05-23T07:55:17.282Z,14.82
2019-05-23T07:57:46.697Z,14.91
2019-05-23T08:00:18.619Z,15.01
2019-05-23T08:02:51.394Z,15.00
2019-05-23T08:05:22.961Z,15.08
2019-05-23T08:07:52.685Z,15.22
2019-05-23T08:10:32.977Z,15.23
2019-05-23T08:12:53.407Z,15.29
2019-05-23T08:15:22.942Z,15.42
2019-05-23T08:17:52.360Z,15.47
2019-05-23T08:20:21.766Z,15.57
2019-05-23T08:22:51.109Z,15.60
2019-05-23T08:25:20.508Z,15.63
2019-05-23T08:27:50.126Z,15.68
2019-05-23T08:30:19.972Z,15.79
2019-05-23T08:32:49.625Z,15.85
2019-05-23T08:35:19.355Z,15.92
2019-05-23T08:37:48.848Z,15.99
2019-05-23T08:40:18.767Z,16.09
2019-05-23T08:42:48.113Z,16.15
2019-05-23T08:45:18.869Z,16.19
2019-05-23T08:47:48.272Z,16.26
2019-05-23T08:50:19.282Z,16.37
2019-05-23T08:52:48.643Z,16.43
2019-05-23T08:55:23.394Z,16.51
2019-05-23T08:57:54.685Z,16.53
2019-05-23T09:00:26.787Z,16.60
2019-05-23T09:02:58.716Z,16.78
2019-05-23T09:05:30.606Z,16.83
2019-05-23T09:08:00.501Z,16.90
2019-05-23T09:10:30.946Z,16.98
2019-05-23T09:13:00.881Z,17.11
2019-05-23T09:15:30.490Z,17.21
2019-05-23T09:18:00.108Z,17.25
2019-05-23T09:20:29.713Z,17.26
2019-05-23T09:22:59.064Z,17.28
2019-05-23T09:25:28.398Z,17.35
2019-05-23T09:27:58.178Z,17.39
2019-05-23T09:30:29.891Z,17.49
2019-05-23T09:32:59.296Z,17.60
2019-05-23T09:35:29.787Z,17.75
2019-05-23T09:37:59.470Z,17.89
2019-05-23T09:40:29.538Z,18.01
2019-05-23T09:42:59.166Z,17.94
2019-05-23T09:45:28.794Z,18.04
2019-05-23T09:47:58.136Z,18.06
2019-05-23T09:50:27.526Z,18.12
2019-05-23T09:52:56.876Z,18.26
2019-05-23T09:55:26.212Z,18.28
2019-05-23T09:57:55.668Z,18.39
2019-05-23T10:00:26.028Z,18.46
2019-05-23T10:02:56.824Z,18.58
2019-05-23T10:05:41.701Z,18.63
2019-05-23T10:07:57.645Z,18.80
2019-05-23T10:10:27.748Z,18.88
2019-05-23T10:12:58.137Z,19.01
2019-05-23T10:15:40.017Z,19.00
2019-05-23T10:18:11.274Z,19.05
2019-05-23T10:20:40.596Z,19.12
2019-05-23T10:23:09.927Z,19.26
2019-05-23T10:25:40.577Z,19.26
2019-05-23T10:28:10.503Z,19.29
2019-05-23T10:30:40.001Z,19.34
2019-05-23T10:33:12.371Z,19.37
2019-05-23T10:35:56.927Z,19.50
2019-05-23T10:38:11.879Z,19.60
2019-05-23T10:40:41.570Z,19.85
2019-05-23T10:43:11.238Z,19.79
2019-05-23T10:45:40.572Z,19.98
2019-05-23T10:48:11.815Z,20.10
2019-05-23T10:50:44.818Z,20.27
2019-05-23T10:53:12.884Z,20.37
2019-05-23T10:55:42.224Z,20.44
2019-05-23T10:58:11.989Z,20.60
2019-05-23T11:00:42.794Z,20.76
2019-05-23T11:03:13.174Z,20.87
2019-05-23T11:05:42.685Z,21.01
2019-05-23T11:08:15.048Z,21.19
2019-05-23T11:10:44.613Z,21.15
2019-05-23T11:13:14.242Z,21.32
2019-05-23T11:15:43.727Z,21.53
2019-05-23T11:18:13.200Z,21.73
2019-05-23T11:20:42.607Z,21.94
2019-05-23T11:23:13.648Z,22.12
2019-05-23T11:25:43.527Z,22.24
2019-05-23T11:28:13.146Z,22.57
2019-05-23T11:30:54.989Z,22.77
2019-05-23T11:33:25.159Z,23.07
2019-05-23T11:35:54.649Z,23.55
2019-05-23T11:38:24.119Z,23.85
2019-05-23T11:40:53.452Z,24.20
2019-05-23T11:43:22.786Z,24.53
2019-05-23T11:45:53.762Z,24.93
2019-05-23T11:48:23.467Z,25.23
2019-05-23T11:50:52.972Z,25.50
2019-05-23T11:53:22.308Z,25.67
2019-05-23T11:55:54.479Z,25.97
2019-05-23T11:58:23.390Z,26.12
2019-05-23T12:01:00.284Z,26.28
2019-05-23T12:03:29.707Z,26.60
2019-05-23T12:05:59.325Z,26.77
2019-05-23T12:08:28.928Z,26.63
2019-05-23T12:10:58.289Z,26.79
2019-05-23T12:13:27.883Z,26.87
2019-05-23T12:15:57.747Z,27.03
2019-05-23T12:18:28.085Z,26.61
2019-05-23T12:20:59.818Z,27.00
2019-05-23T12:23:28.983Z,27.10
2019-05-23T12:25:58.337Z,27.19
2019-05-23T12:28:27.984Z,27.49
2019-05-23T12:30:57.551Z,27.75
2019-05-23T12:33:26.883Z,27.73
2019-05-23T12:35:56.212Z,27.70
2019-05-23T12:38:25.619Z,28.05
2019-05-23T12:40:54.945Z,28.23
2019-05-23T12:43:24.270Z,27.91
2019-05-23T12:45:53.881Z,27.88
2019-05-23T12:48:33.826Z,27.89
2019-05-23T12:51:04.861Z,28.63
2019-05-23T12:53:34.456Z,28.63
2019-05-23T12:56:04.744Z,28.59
2019-05-23T12:58:36.848Z,28.86
2019-05-23T13:01:07.994Z,28.83
2019-05-23T13:03:37.323Z,28.82
2019-05-23T13:06:07.397Z,28.99
2019-05-23T13:08:37.001Z,29.04
2019-05-23T13:11:06.441Z,28.79
2019-05-23T13:13:35.842Z,29.09
2019-05-23T13:16:05.345Z,29.30
2019-05-23T13:18:35.706Z,28.97
2019-05-23T13:21:05.360Z,29.13
2019-05-23T13:23:35.195Z,29.19
2019-05-23T13:26:04.972Z,29.19
2019-05-23T13:28:35.372Z,28.92
2019-05-23T13:31:04.874Z,28.92
2019-05-23T13:33:34.404Z,28.56
2019-05-23T13:36:03.749Z,28.49
2019-05-23T13:38:33.347Z,28.79
2019-05-23T13:41:02.667Z,28.67
2019-05-23T13:43:32.006Z,28.67
2019-05-23T13:46:01.397Z,28.94
2019-05-23T13:48:30.930Z,29.02
2019-05-23T13:51:00.421Z,29.00
2019-05-23T13:53:30.020Z,29.05
2019-05-23T13:55:59.363Z,29.22
2019-05-23T13:58:28.964Z,29.35
2019-05-23T14:00:58.283Z,29.51
2019-05-23T14:03:28.952Z,29.68
2019-05-23T14:05:58.291Z,29.38
2019-05-23T14:08:27.681Z,29.50
2019-05-23T14:10:57.381Z,29.73
2019-05-23T14:13:26.953Z,29.73
2019-05-23T14:15:57.348Z,29.75
2019-05-23T14:18:28.260Z,29.05
2019-05-23T14:20:58.254Z,29.05
2019-05-23T14:23:29.231Z,29.17
2019-05-23T14:25:58.632Z,29.16
2019-05-23T14:28:28.116Z,29.28
2019-05-23T14:31:11.802Z,29.20
2019-05-23T14:33:51.510Z,29.32
2019-05-23T14:36:22.485Z,29.32
2019-05-23T14:38:53.557Z,29.16
2019-05-23T14:41:22.882Z,29.40
2019-05-23T14:43:54.232Z,29.58
2019-05-23T14:46:25.262Z,29.66
2019-05-23T14:49:05.223Z,29.41
2019-05-23T14:51:39.365Z,29.31
2019-05-23T14:54:16.291Z,29.10
2019-05-23T14:56:46.047Z,29.10
2019-05-23T14:59:15.432Z,29.20
2019-05-23T15:01:45.773Z,29.26
2019-05-23T15:04:15.351Z,29.59
2019-05-23T15:06:45.407Z,29.64
2019-05-23T15:09:15.075Z,29.66
2019-05-23T15:11:44.555Z,29.66
2019-05-23T15:14:13.887Z,29.36
2019-05-23T15:16:43.224Z,29.25
2019-05-23T15:19:12.561Z,29.03
2019-05-23T15:21:42.155Z,28.72
2019-05-23T15:24:11.805Z,28.72
2019-05-23T15:26:41.132Z,28.89
2019-05-23T15:29:10.466Z,28.20
2019-05-23T15:31:39.800Z,28.20
2019-05-23T15:34:09.142Z,28.19
2019-05-23T15:36:38.473Z,27.92
2019-05-23T15:39:10.528Z,27.78
2019-05-23T15:41:39.995Z,27.77
2019-05-23T15:44:24.255Z,27.19
2019-05-23T15:46:40.474Z,27.14
2019-05-23T15:49:11.306Z,26.79
2019-05-23T15:51:48.137Z,26.85
2019-05-23T15:54:19.183Z,26.82
2019-05-23T15:56:50.222Z,26.71
2019-05-23T15:59:23.855Z,26.63
2019-05-23T16:01:54.963Z,26.48
2019-05-23T16:04:25.180Z,26.37
2019-05-23T16:06:55.844Z,26.32
2019-05-23T16:09:30.031Z,26.21
2019-05-23T16:11:57.215Z,26.10
2019-05-23T16:14:27.494Z,25.84
2019-05-23T16:16:57.863Z,25.71
2019-05-23T16:19:27.478Z,25.62
2019-05-23T16:21:57.105Z,25.66
2019-05-23T16:24:26.432Z,25.54
2019-05-23T16:26:55.842Z,25.56
2019-05-23T16:29:25.733Z,25.53
2019-05-23T16:31:55.097Z,25.44
2019-05-23T16:34:25.063Z,25.28
2019-05-23T16:36:54.403Z,25.23
2019-05-23T16:39:23.740Z,25.11
2019-05-23T16:41:53.153Z,25.02
2019-05-23T16:44:22.616Z,25.05
2019-05-23T16:46:52.017Z,24.97
2019-05-23T16:49:21.398Z,24.98
2019-05-23T16:51:50.808Z,24.89
2019-05-23T16:54:21.840Z,24.88
2019-05-23T16:56:55.814Z,24.87
2019-05-23T16:59:39.423Z,24.68
2019-05-23T17:02:26.263Z,24.58
2019-05-23T17:05:09.229Z,24.50
2019-05-23T17:07:31.822Z,24.39
2019-05-23T17:10:08.856Z,24.37
2019-05-23T17:12:38.258Z,24.31
2019-05-23T17:15:13.723Z,24.19
2019-05-23T17:18:03.162Z,23.99
2019-05-23T17:20:50.324Z,23.97
2019-05-23T17:23:33.373Z,23.87
2019-05-23T17:26:04.603Z,23.83
2019-05-23T17:28:35.642Z,23.84
2019-05-23T17:31:07.097Z,23.69
2019-05-23T17:33:37.317Z,23.62
2019-05-23T17:36:07.029Z,23.56
2019-05-23T17:38:36.359Z,23.47
2019-05-23T17:41:05.930Z,23.41
2019-05-23T17:43:36.222Z,23.40
2019-05-23T17:46:05.615Z,23.35
2019-05-23T17:48:35.093Z,23.23
2019-05-23T17:51:04.691Z,23.13
2019-05-23T17:53:34.463Z,23.12
2019-05-23T17:56:04.999Z,23.04
2019-05-23T17:58:34.342Z,22.92
2019-05-23T18:01:05.386Z,22.87
2019-05-23T18:03:35.071Z,22.88
2019-05-23T18:06:05.421Z,22.83
2019-05-23T18:08:35.162Z,22.72
2019-05-23T18:11:05.296Z,22.67
2019-05-23T18:13:35.445Z,22.62
2019-05-23T18:16:05.407Z,22.54
2019-05-23T18:18:34.748Z,22.49
2019-05-23T18:21:04.586Z,22.48
2019-05-23T18:23:34.399Z,22.40
2019-05-23T18:26:05.671Z,22.35
2019-05-23T18:28:35.950Z,22.32
2019-05-23T18:31:17.056Z,22.23
2019-05-23T18:33:46.757Z,22.03
2019-05-23T18:36:17.260Z,21.95
2019-05-23T18:38:47.101Z,21.93
2019-05-23T18:41:17.637Z,21.85
2019-05-23T18:43:47.966Z,21.74
2019-05-23T18:46:21.880Z,21.72
2019-05-23T18:48:51.294Z,21.59
2019-05-23T18:51:20.750Z,21.48
2019-05-23T18:53:50.620Z,21.49
2019-05-23T18:56:19.944Z,21.42
2019-05-23T18:58:49.604Z,21.38
2019-05-23T19:01:20.001Z,21.34
2019-05-23T19:03:49.343Z,21.22
2019-05-23T19:06:18.834Z,21.16
2019-05-23T19:08:48.608Z,21.04
2019-05-23T19:11:21.278Z,20.97
2019-05-23T19:13:48.972Z,20.89
2019-05-23T19:16:18.367Z,20.85
2019-05-23T19:18:48.544Z,20.76
2019-05-23T19:21:18.549Z,20.69
2019-05-23T19:23:47.899Z,20.58
2019-05-23T19:26:18.168Z,20.52
2019-05-23T19:28:47.983Z,20.44
2019-05-23T19:31:17.430Z,20.35
2019-05-23T19:33:47.822Z,20.24
2019-05-23T19:36:17.201Z,20.16
2019-05-23T19:38:46.553Z,20.06
2019-05-23T19:41:17.227Z,19.96
2019-05-23T19:43:48.261Z,19.86
2019-05-23T19:46:18.247Z,19.76
2019-05-23T19:48:48.493Z,19.63
2019-05-23T19:51:20.301Z,19.52
2019-05-23T19:53:50.157Z,19.41
2019-05-23T19:56:20.128Z,19.30
2019-05-23T19:58:49.730Z,19.22
2019-05-23T20:01:20.002Z,19.08
2019-05-23T20:03:49.747Z,18.98
2019-05-23T20:06:19.737Z,18.85
2019-05-23T20:08:49.331Z,18.67
2019-05-23T20:11:19.312Z,18.53
2019-05-23T20:13:48.648Z,18.40
2019-05-23T20:16:18.043Z,18.30
2019-05-23T20:18:47.378Z,18.19
2019-05-23T20:21:18.308Z,18.06
2019-05-23T20:23:47.964Z,17.92
2019-05-23T20:26:17.434Z,17.84
2019-05-23T20:28:46.764Z,17.77
2019-05-23T20:31:16.914Z,17.69
2019-05-23T20:33:46.249Z,17.61
2019-05-23T20:36:17.533Z,17.54
2019-05-23T20:38:46.857Z,17.46
2019-05-23T20:41:16.461Z,17.38
2019-05-23T20:43:45.783Z,17.30
2019-05-23T20:46:15.200Z,17.21
2019-05-23T20:48:44.585Z,17.14
2019-05-23T20:51:14.585Z,17.07
2019-05-23T20:53:44.149Z,17.00
2019-05-23T20:56:14.481Z,16.93
2019-05-23T20:58:43.815Z,16.88
2019-05-23T21:01:17.547Z,16.81
2019-05-23T21:03:46.968Z,16.74
2019-05-23T21:06:16.379Z,16.67
2019-05-23T21:08:45.704Z,16.58
2019-05-23T21:11:15.046Z,16.53
2019-05-23T21:13:44.455Z,16.47
2019-05-23T21:16:13.769Z,16.41
2019-05-23T21:18:43.103Z,16.34
2019-05-23T21:21:12.570Z,16.28
2019-05-23T21:23:41.895Z,16.22
2019-05-23T21:26:11.301Z,16.16
2019-05-23T21:28:40.711Z,16.12
2019-05-23T21:31:12.052Z,16.07
2019-05-23T21:33:41.376Z,16.04
2019-05-23T21:36:11.019Z,15.98
2019-05-23T21:38:40.729Z,15.92
2019-05-23T21:41:10.167Z,15.87
2019-05-23T21:43:39.564Z,15.83
2019-05-23T21:46:08.971Z,15.80
2019-05-23T21:48:38.302Z,15.76
2019-05-23T21:51:07.673Z,15.69
2019-05-23T21:53:37.997Z,15.64
2019-05-23T21:56:07.328Z,15.61
2019-05-23T21:58:36.987Z,15.56
2019-05-23T22:01:10.386Z,15.54
2019-05-23T22:03:48.485Z,15.46
2019-05-23T22:06:19.414Z,15.43
2019-05-23T22:08:49.116Z,15.37
2019-05-23T22:11:18.586Z,15.34
2019-05-23T22:13:47.910Z,15.30
2019-05-23T22:16:18.279Z,15.27
2019-05-23T22:18:47.605Z,15.23
2019-05-23T22:21:17.020Z,15.18
2019-05-23T22:23:46.711Z,15.16
2019-05-23T22:26:16.106Z,15.12
2019-05-23T22:28:45.432Z,15.08
2019-05-23T22:31:15.429Z,15.05
2019-05-23T22:34:02.710Z,15.02
2019-05-23T22:36:32.105Z,14.97
2019-05-23T22:39:01.506Z,14.94
2019-05-23T22:41:32.451Z,14.89
2019-05-23T22:44:01.783Z,14.85
2019-05-23T22:46:31.178Z,14.83
2019-05-23T22:49:00.511Z,14.79
2019-05-23T22:51:29.835Z,14.76
2019-05-23T22:53:59.235Z,14.72
2019-05-23T22:56:28.635Z,14.67
2019-05-23T22:58:58.029Z,14.63
2019-05-23T23:01:28.739Z,14.61
2019-05-23T23:03:58.205Z,14.56
2019-05-23T23:06:28.099Z,14.53
2019-05-23T23:08:57.434Z,14.49
2019-05-23T23:11:26.758Z,14.45
2019-05-23T23:13:56.377Z,14.40
2019-05-23T23:16:25.707Z,14.36
2019-05-23T23:18:55.137Z,14.32
2019-05-23T23:21:25.685Z,14.26
2019-05-23T23:23:55.029Z,14.22
2019-05-23T23:26:25.362Z,14.18
2019-05-23T23:28:54.691Z,14.12
2019-05-23T23:31:24.085Z,14.08
2019-05-23T23:33:53.488Z,14.04
2019-05-23T23:36:22.813Z,13.99
2019-05-23T23:38:52.147Z,13.94
2019-05-23T23:41:21.474Z,13.90
2019-05-23T23:43:59.185Z,13.86
2019-05-23T23:46:39.665Z,13.82
2019-05-23T23:49:26.896Z,13.76
2019-05-23T23:52:14.286Z,13.70
2019-05-23T23:55:01.986Z,13.64
2019-05-23T23:57:49.722Z,13.60
